Time;durP1;ratioP1;P1;durP2;ratioP2;P2;SDS_P1;SDS_P2;PMS_P1;PMS_P2;Temp;Humidity;BMP_temperature;BMP_pressure;BME280_temperature;BME280_humidity;BME280_pressure;Samples;Min_cycle;Max_cycle;Signal;HPM_P1;HPM_P2
2023/12/31 00:01:22;;;;;;;0.57;0.57;;;8.10;99.90;;;;;;5096297;27;20114;-77
2023/12/31 00:03:48;;;;;;;1.02;0.95;;;8.10;99.90;;;;;;5124320;27;20404;-77
2023/12/31 00:06:14;;;;;;;0.50;0.50;;;8.10;99.90;;;;;;5110086;27;20039;-78
2023/12/31 00:08:39;;;;;;;0.50;0.50;;;8.10;99.90;;;;;;5125015;27;20127;-79
2023/12/31 00:11:05;;;;;;;0.40;0.40;;;8.00;99.90;;;;;;5125909;27;20035;-80
2023/12/31 00:13:31;;;;;;;0.40;0.40;;;8.00;99.90;;;;;;5126748;27;20039;-81
2023/12/31 00:15:56;;;;;;;1.38;1.27;;;8.00;99.90;;;;;;5123612;27;20039;-78
2023/12/31 00:18:22;;;;;;;0.73;0.73;;;8.00;99.90;;;;;;5123961;27;20077;-80
2023/12/31 00:20:47;;;;;;;0.60;0.60;;;8.00;99.90;;;;;;5122639;27;20091;-79
2023/12/31 00:23:14;;;;;;;0.43;0.43;;;8.10;99.90;;;;;;5124728;27;20054;-80
2023/12/31 00:25:39;;;;;;;0.40;0.40;;;8.10;99.90;;;;;;5128164;27;20167;-77
2023/12/31 00:28:05;;;;;;;0.93;0.93;;;8.10;99.90;;;;;;5109370;27;20082;-80
2023/12/31 00:30:31;;;;;;;0.40;0.40;;;8.10;99.90;;;;;;5115648;27;20396;-82
2023/12/31 00:32:56;;;;;;;1.05;1.05;;;8.20;99.90;;;;;;5129543;27;20038;-79
2023/12/31 00:35:22;;;;;;;0.30;0.30;;;8.10;99.90;;;;;;5126297;27;20035;-79
2023/12/31 00:37:48;;;;;;;0.40;0.40;;;8.10;99.90;;;;;;5112769;27;20441;-81
2023/12/31 00:40:14;;;;;;;0.40;0.40;;;8.20;99.90;;;;;;5116494;27;20395;-80
2023/12/31 00:42:39;;;;;;;0.40;0.40;;;8.20;99.90;;;;;;5114399;27;20027;-79
2023/12/31 00:45:06;;;;;;;0.40;0.40;;;8.20;99.90;;;;;;5134246;27;20076;-79
2023/12/31 00:47:33;;;;;;;0.40;0.40;;;8.20;99.90;;;;;;5113346;27;20038;-80
2023/12/31 00:49:59;;;;;;;0.80;0.80;;;8.30;99.90;;;;;;5135144;27;20121;-77
2023/12/31 00:52:25;;;;;;;0.73;0.73;;;8.20;99.90;;;;;;5114240;27;20111;-80
2023/12/31 00:54:52;;;;;;;1.00;0.45;;;8.20;99.90;;;;;;5130807;27;20039;-82
2023/12/31 00:57:18;;;;;;;0.50;0.50;;;8.20;99.90;;;;;;5127807;27;20064;-79
2023/12/31 00:59:43;;;;;;;0.40;0.40;;;8.20;99.90;;;;;;5129567;27;20043;-82
2023/12/31 01:02:09;;;;;;;0.40;0.40;;;8.10;99.90;;;;;;5134263;27;20065;-78
2023/12/31 01:04:36;;;;;;;0.40;0.40;;;8.10;99.90;;;;;;5129294;27;20051;-81
2023/12/31 01:07:02;;;;;;;0.40;0.40;;;8.10;99.90;;;;;;5129011;27;20506;-81
2023/12/31 01:09:28;;;;;;;0.40;0.40;;;8.00;99.90;;;;;;5132153;27;20058;-78
2023/12/31 01:11:54;;;;;;;0.40;0.40;;;7.90;99.90;;;;;;5112186;28;20039;-82
2023/12/31 01:14:20;;;;;;;0.73;0.70;;;7.90;99.90;;;;;;5132862;27;20055;-79
2023/12/31 01:16:46;;;;;;;0.43;0.43;;;7.80;99.90;;;;;;5128768;28;20107;-78
2023/12/31 01:19:11;;;;;;;0.60;0.60;;;7.80;99.90;;;;;;5111990;27;20156;-83
2023/12/31 01:21:37;;;;;;;0.40;0.40;;;7.90;99.90;;;;;;5127153;27;20103;-79
2023/12/31 01:24:03;;;;;;;0.40;0.40;;;7.90;99.90;;;;;;5127865;27;20524;-82
2023/12/31 01:26:29;;;;;;;0.40;0.40;;;7.90;99.90;;;;;;5110531;27;20094;-80
2023/12/31 01:28:55;;;;;;;0.40;0.40;;;7.90;99.90;;;;;;5127035;28;20058;-80
2023/12/31 01:31:21;;;;;;;0.40;0.40;;;7.90;99.90;;;;;;5111363;27;20039;-79
2023/12/31 01:33:47;;;;;;;0.43;0.43;;;7.90;99.90;;;;;;5127732;27;20054;-78
2023/12/31 01:36:16;;;;;;;0.32;0.32;;;7.90;99.90;;;;;;5109108;28;20035;-81
2023/12/31 01:38:43;;;;;;;0.50;0.50;;;7.90;99.90;;;;;;5127419;27;20499;-78
2023/12/31 01:41:09;;;;;;;0.30;0.30;;;7.90;99.90;;;;;;5129649;27;20039;-78
2023/12/31 01:43:35;;;;;;;;;;;7.80;99.90;;;;;;5135802;27;20035;-79
2023/12/31 01:46:02;;;;;;;0.65;0.65;;;7.80;99.90;;;;;;5119389;27;19919;-79
2023/12/31 01:48:28;;;;;;;0.43;0.43;;;7.70;99.90;;;;;;5130204;27;20494;-79
2023/12/31 01:50:54;;;;;;;0.30;0.30;;;7.70;99.90;;;;;;5112999;27;20125;-81
2023/12/31 01:53:20;;;;;;;0.50;0.50;;;7.60;99.90;;;;;;5133091;27;20062;-81
2023/12/31 01:55:47;;;;;;;1.02;0.75;;;7.60;99.90;;;;;;5113781;27;20039;-79
2023/12/31 01:58:14;;;;;;;0.45;0.45;;;7.60;99.90;;;;;;5131224;27;20544;-78
2023/12/31 02:00:40;;;;;;;0.60;0.50;;;7.50;99.90;;;;;;5132647;27;20052;-80
2023/12/31 02:03:07;;;;;;;0.40;0.40;;;7.50;99.90;;;;;;5132078;27;20034;-80
2023/12/31 02:05:33;;;;;;;0.40;0.40;;;7.50;99.90;;;;;;5132594;27;20111;-80
2023/12/31 02:07:59;;;;;;;;;;;7.40;99.90;;;;;;5132813;27;20046;-78
2023/12/31 02:10:25;;;;;;;0.45;0.45;;;7.40;99.90;;;;;;5129680;27;19940;-78
2023/12/31 02:12:51;;;;;;;0.60;0.60;;;7.40;99.90;;;;;;5132140;27;20165;-79
2023/12/31 02:15:31;;;;;;;0.50;0.50;;;7.40;99.90;;;;;;5132132;27;20243;-78
2023/12/31 02:17:57;;;;;;;0.40;0.40;;;7.30;99.90;;;;;;5119535;27;20417;-79
2023/12/31 02:20:23;;;;;;;0.40;0.40;;;7.40;99.90;;;;;;5131151;27;20404;-81
2023/12/31 02:22:49;;;;;;;0.40;0.40;;;7.30;99.90;;;;;;5095537;27;20080;-80
2023/12/31 02:25:21;;;;;;;0.50;0.50;;;7.30;99.90;;;;;;5130556;27;20078;-81
2023/12/31 02:27:47;;;;;;;0.40;0.40;;;7.40;99.90;;;;;;5129749;27;20054;-80
2023/12/31 02:30:13;;;;;;;0.50;0.50;;;7.40;99.90;;;;;;5130710;27;20095;-79
2023/12/31 02:32:39;;;;;;;0.50;0.50;;;7.40;99.90;;;;;;5130627;27;20449;-79
2023/12/31 02:35:05;;;;;;;0.80;0.80;;;7.50;99.90;;;;;;5132917;27;20035;-78
2023/12/31 02:37:31;;;;;;;0.30;0.30;;;7.40;99.90;;;;;;5113672;27;20486;-78
2023/12/31 02:39:56;;;;;;;0.50;0.50;;;7.40;99.90;;;;;;5132346;27;20043;-79
2023/12/31 02:42:22;;;;;;;0.50;0.50;;;7.40;99.90;;;;;;5130237;27;20392;-78
2023/12/31 02:44:48;;;;;;;0.40;0.40;;;7.40;99.90;;;;;;5132935;27;20082;-81
2023/12/31 02:47:14;;;;;;;0.43;0.43;;;7.40;99.90;;;;;;5130762;27;20447;-80
2023/12/31 02:49:40;;;;;;;0.50;0.50;;;7.30;99.90;;;;;;5130932;27;20044;-79
2023/12/31 02:52:05;;;;;;;0.40;0.40;;;7.40;99.90;;;;;;5132187;27;20035;-80
2023/12/31 02:54:31;;;;;;;0.80;0.80;;;7.40;99.90;;;;;;5132885;27;20073;-80
2023/12/31 02:56:57;;;;;;;0.90;0.90;;;7.40;99.90;;;;;;5129927;27;20047;-78
2023/12/31 02:59:23;;;;;;;0.70;0.70;;;7.30;99.90;;;;;;5112229;27;20498;-80
2023/12/31 03:01:50;;;;;;;0.30;0.30;;;7.20;99.90;;;;;;5129793;27;20035;-81
2023/12/31 03:04:16;;;;;;;0.50;0.50;;;7.20;99.90;;;;;;5111443;27;20070;-78
2023/12/31 03:06:41;;;;;;;0.50;0.50;;;7.30;99.90;;;;;;5129367;27;20082;-79
2023/12/31 03:09:07;;;;;;;0.68;0.50;;;7.20;99.90;;;;;;5132724;27;20047;-80
2023/12/31 03:11:34;;;;;;;0.60;0.60;;;7.20;99.90;;;;;;5131111;27;20050;-82
2023/12/31 03:14:00;;;;;;;0.57;0.57;;;7.10;99.90;;;;;;5129406;27;20095;-78
2023/12/31 03:16:25;;;;;;;0.40;0.40;;;7.10;99.90;;;;;;5130978;27;20042;-79
2023/12/31 03:18:54;;;;;;;0.60;0.60;;;7.00;99.90;;;;;;5131644;27;20031;-80
2023/12/31 03:21:20;;;;;;;0.40;0.40;;;6.90;99.90;;;;;;5119293;27;20226;-79
2023/12/31 03:23:45;;;;;;;0.30;0.30;;;6.90;99.90;;;;;;5135990;27;20043;-79
2023/12/31 03:26:11;;;;;;;0.73;0.73;;;6.80;99.90;;;;;;5113023;27;20483;-78
2023/12/31 03:28:37;;;;;;;0.55;0.55;;;6.70;99.90;;;;;;5113244;27;20047;-80
2023/12/31 03:31:03;;;;;;;0.77;0.77;;;6.70;99.90;;;;;;5115161;27;20043;-77
2023/12/31 03:33:30;;;;;;;0.60;0.60;;;6.60;99.90;;;;;;5115071;27;20096;-78
2023/12/31 03:35:55;;;;;;;0.75;0.75;;;6.60;99.90;;;;;;5126493;27;20096;-79
2023/12/31 03:38:21;;;;;;;1.40;0.57;;;6.60;99.90;;;;;;5130123;27;20042;-80
2023/12/31 03:40:47;;;;;;;1.05;1.05;;;6.50;99.90;;;;;;5129892;27;20067;-81
2023/12/31 03:43:13;;;;;;;0.47;0.47;;;6.50;99.90;;;;;;5112241;27;20039;-80
2023/12/31 03:45:38;;;;;;;0.57;0.57;;;6.50;99.90;;;;;;5127974;27;20783;-77
2023/12/31 03:48:05;;;;;;;1.30;1.30;;;6.50;99.90;;;;;;5112362;27;20039;-78
2023/12/31 03:50:31;;;;;;;0.47;0.47;;;6.40;99.90;;;;;;5129807;27;20038;-81
2023/12/31 03:52:56;;;;;;;0.50;0.50;;;6.40;99.90;;;;;;5112094;27;20163;-78
2023/12/31 03:55:23;;;;;;;1.33;1.23;;;6.50;99.90;;;;;;5128886;27;20039;-81
2023/12/31 03:57:49;;;;;;;0.40;0.40;;;6.40;99.90;;;;;;5129406;27;20394;-79
2023/12/31 04:00:16;;;;;;;0.50;0.50;;;6.40;99.90;;;;;;5128911;27;20047;-79
2023/12/31 04:02:42;;;;;;;0.65;0.65;;;6.50;99.90;;;;;;5129107;27;20047;-81
2023/12/31 04:05:08;;;;;;;0.40;0.40;;;6.50;99.90;;;;;;5128582;27;20550;-80
2023/12/31 04:07:33;;;;;;;;;;;6.50;99.90;;;;;;5112871;27;20050;-80
2023/12/31 04:10:00;;;;;;;0.60;0.60;;;6.50;99.90;;;;;;5129322;27;19919;-79
2023/12/31 04:12:26;;;;;;;0.60;0.60;;;6.50;99.90;;;;;;5127733;27;20043;-80
2023/12/31 04:14:52;;;;;;;0.40;0.40;;;6.60;99.90;;;;;;5128889;27;20043;-80
2023/12/31 04:17:18;;;;;;;0.40;0.40;;;6.60;99.90;;;;;;5111920;27;20496;-78
2023/12/31 04:19:44;;;;;;;0.43;0.43;;;6.60;99.90;;;;;;5130139;27;20042;-78
2023/12/31 04:22:10;;;;;;;0.50;0.50;;;6.70;99.90;;;;;;5128277;27;20103;-79
2023/12/31 04:24:35;;;;;;;0.50;0.50;;;6.60;99.90;;;;;;5129096;27;20511;-80
2023/12/31 04:27:01;;;;;;;0.55;0.55;;;6.60;99.90;;;;;;5129404;27;20055;-78
2023/12/31 04:29:27;;;;;;;0.60;0.60;;;6.60;99.90;;;;;;5130512;27;20055;-80
2023/12/31 04:31:53;;;;;;;0.50;0.50;;;6.60;99.90;;;;;;5129895;27;20471;-80
2023/12/31 04:34:18;;;;;;;0.50;0.50;;;6.60;99.90;;;;;;5115498;27;20047;-78
2023/12/31 04:36:45;;;;;;;0.60;0.60;;;6.60;99.90;;;;;;5111225;27;20139;-80
2023/12/31 04:39:12;;;;;;;0.40;0.40;;;6.60;99.90;;;;;;5131452;27;20039;-81
2023/12/31 04:41:37;;;;;;;0.40;0.40;;;6.60;99.90;;;;;;5132249;27;20443;-80
2023/12/31 04:44:03;;;;;;;0.40;0.40;;;6.70;99.90;;;;;;5132473;27;20046;-79
2023/12/31 04:46:29;;;;;;;0.47;0.47;;;6.60;99.90;;;;;;5129886;27;20075;-80
2023/12/31 04:48:55;;;;;;;0.40;0.40;;;6.60;99.90;;;;;;5127542;27;20055;-78
2023/12/31 04:51:28;;;;;;;0.40;0.40;;;7.20;99.90;;;;;;5091077;27;20046;-80
2023/12/31 04:53:55;;;;;;;0.40;0.40;;;6.60;99.90;;;;;;5127684;27;20066;-79
2023/12/31 04:56:22;;;;;;;0.40;0.40;;;6.60;99.90;;;;;;5127935;27;20043;-81
2023/12/31 04:58:53;;;;;;;0.50;0.50;;;6.70;99.90;;;;;;5130568;27;20034;-77
2023/12/31 05:01:19;;;;;;;0.50;0.50;;;6.70;99.90;;;;;;5100816;28;20114;-76
2023/12/31 05:03:45;;;;;;;;;;;6.70;99.90;;;;;;5113950;27;20047;-80
2023/12/31 05:06:12;;;;;;;0.50;0.50;;;6.80;99.90;;;;;;5128349;27;19915;-80
2023/12/31 05:08:41;;;;;;;0.70;0.70;;;6.80;99.90;;;;;;5109149;27;20053;-77
2023/12/31 05:11:07;;;;;;;0.50;0.50;;;6.80;99.90;;;;;;5125793;27;20526;-80
2023/12/31 05:13:33;;;;;;;0.50;0.50;;;6.80;99.90;;;;;;5125942;27;20079;-80
2023/12/31 05:15:59;;;;;;;0.50;0.50;;;6.80;99.90;;;;;;5110639;27;20099;-77
2023/12/31 05:18:24;;;;;;;0.40;0.40;;;6.70;99.90;;;;;;5127547;28;20043;-80
2023/12/31 05:20:50;;;;;;;0.43;0.43;;;6.80;99.90;;;;;;5110423;27;20488;-77
2023/12/31 05:23:16;;;;;;;0.40;0.40;;;6.70;99.90;;;;;;5128470;27;20089;-77
2023/12/31 05:25:42;;;;;;;0.40;0.40;;;6.70;99.90;;;;;;5128326;27;20066;-77
2023/12/31 05:28:07;;;;;;;0.40;0.40;;;6.90;99.90;;;;;;5129535;27;20075;-79
2023/12/31 05:30:33;;;;;;;0.50;0.50;;;6.80;99.90;;;;;;5126534;27;20125;-79
2023/12/31 05:32:59;;;;;;;0.40;0.40;;;6.80;99.90;;;;;;5110785;27;20100;-78
2023/12/31 05:35:24;;;;;;;0.32;0.32;;;6.80;99.90;;;;;;5126223;27;20606;-80
2023/12/31 05:37:50;;;;;;;0.50;0.50;;;6.80;99.90;;;;;;5127211;27;20043;-77
2023/12/31 05:40:16;;;;;;;0.50;0.50;;;6.80;99.90;;;;;;5129066;27;20121;-81
2023/12/31 05:42:41;;;;;;;0.55;0.55;;;6.80;99.90;;;;;;5108466;28;20100;-82
2023/12/31 05:45:07;;;;;;;0.40;0.40;;;6.80;99.90;;;;;;5127878;27;20093;-77
2023/12/31 05:47:34;;;;;;;1.70;1.60;;;6.80;99.90;;;;;;5126999;27;20100;-79
2023/12/31 05:49:59;;;;;;;;;;;6.80;99.90;;;;;;5110803;28;20062;-81
2023/12/31 05:52:25;;;;;;;0.43;0.43;;;6.80;99.90;;;;;;5110758;27;19915;-79
2023/12/31 05:54:50;;;;;;;0.32;0.32;;;6.80;99.90;;;;;;5111618;27;20046;-78
2023/12/31 05:57:16;;;;;;;0.43;0.43;;;6.80;99.90;;;;;;5126957;27;20823;-77
2023/12/31 05:59:42;;;;;;;0.60;0.60;;;6.90;99.90;;;;;;5109702;27;20050;-80
2023/12/31 06:02:07;;;;;;;0.73;0.73;;;6.90;99.90;;;;;;5071269;28;20035;-83
2023/12/31 06:04:33;;;;;;;0.70;0.70;;;6.90;99.90;;;;;;5127403;27;20086;-77
2023/12/31 06:06:58;;;;;;;0.50;0.50;;;6.90;99.90;;;;;;5126969;28;20069;-78
2023/12/31 06:09:26;;;;;;;1.52;0.88;;;6.90;99.90;;;;;;5114238;28;20142;-78
2023/12/31 06:11:52;;;;;;;0.50;0.50;;;6.90;99.90;;;;;;5127720;27;20046;-78
2023/12/31 06:14:18;;;;;;;0.65;0.65;;;6.80;99.90;;;;;;5111355;28;20047;-79
2023/12/31 06:16:44;;;;;;;0.75;0.75;;;6.90;99.90;;;;;;5111366;27;20043;-79
2023/12/31 06:19:09;;;;;;;0.70;0.70;;;6.90;99.90;;;;;;5109347;28;20078;-78
2023/12/31 06:21:35;;;;;;;0.63;0.63;;;6.90;99.90;;;;;;5126202;27;20137;-80
2023/12/31 06:24:01;;;;;;;0.40;0.40;;;6.90;99.90;;;;;;5126679;27;20443;-81
2023/12/31 06:26:27;;;;;;;;;;;6.90;99.90;;;;;;5129758;27;20028;-79
2023/12/31 06:28:53;;;;;;;2.05;1.95;;;6.90;99.90;;;;;;5129591;27;19923;-78
2023/12/31 06:31:19;;;;;;;0.60;0.60;;;6.90;99.90;;;;;;5132394;27;20491;-79
2023/12/31 06:33:45;;;;;;;0.60;0.60;;;6.90;99.90;;;;;;5131614;27;20492;-79
2023/12/31 06:36:10;;;;;;;0.95;0.95;;;6.90;99.90;;;;;;5114485;27;20500;-82
2023/12/31 06:38:36;;;;;;;0.70;0.70;;;6.90;99.90;;;;;;5130329;27;20495;-78
2023/12/31 06:41:11;;;;;;;0.40;0.40;;;7.00;99.90;;;;;;5113498;27;20031;-79
2023/12/31 06:43:37;;;;;;;0.50;0.50;;;6.90;99.90;;;;;;5131752;27;20043;-77
2023/12/31 06:46:04;;;;;;;0.40;0.40;;;6.90;99.90;;;;;;5137097;27;20429;-78
2023/12/31 06:48:29;;;;;;;0.63;0.63;;;7.00;99.90;;;;;;5133041;27;20099;-79
2023/12/31 06:50:55;;;;;;;0.40;0.40;;;7.00;99.90;;;;;;5138664;27;20391;-78
2023/12/31 06:53:21;;;;;;;0.50;0.50;;;7.10;99.90;;;;;;5129554;27;20071;-81
2023/12/31 06:55:46;;;;;;;0.50;0.50;;;7.00;99.90;;;;;;5131701;27;20042;-80
2023/12/31 06:58:13;;;;;;;0.40;0.40;;;7.00;99.90;;;;;;5132176;27;20464;-79
2023/12/31 07:00:38;;;;;;;0.47;0.47;;;7.00;99.90;;;;;;5111865;27;20046;-78
2023/12/31 07:03:05;;;;;;;0.40;0.40;;;7.00;99.90;;;;;;5128931;27;20031;-78
2023/12/31 07:05:31;;;;;;;0.47;0.47;;;7.00;99.90;;;;;;5113631;27;20404;-78
2023/12/31 07:07:57;;;;;;;0.38;0.38;;;7.00;99.90;;;;;;5132082;27;20055;-80
2023/12/31 07:10:23;;;;;;;0.60;0.60;;;7.00;99.90;;;;;;5129429;27;20039;-80
2023/12/31 07:12:49;;;;;;;0.55;0.55;;;7.00;99.90;;;;;;5129972;27;20042;-78
2023/12/31 07:15:15;;;;;;;0.45;0.45;;;7.00;99.90;;;;;;5130047;27;20039;-79
2023/12/31 07:17:41;;;;;;;0.50;0.50;;;7.10;99.90;;;;;;5129054;27;20460;-78
2023/12/31 07:20:08;;;;;;;0.50;0.50;;;7.10;99.90;;;;;;5130789;27;20812;-78
2023/12/31 07:22:33;;;;;;;0.50;0.50;;;7.10;99.90;;;;;;5130168;27;20874;-80
2023/12/31 07:25:02;;;;;;;0.40;0.40;;;7.10;99.90;;;;;;5134558;27;20043;-79
2023/12/31 07:27:29;;;;;;;0.40;0.40;;;7.10;99.90;;;;;;5095173;27;20050;-79
2023/12/31 07:29:54;;;;;;;0.32;0.32;;;7.10;99.90;;;;;;5129070;27;20057;-79
2023/12/31 07:32:20;;;;;;;0.43;0.43;;;7.10;99.90;;;;;;5130396;27;20050;-80
2023/12/31 07:34:46;;;;;;;0.50;0.50;;;7.10;99.90;;;;;;5096716;27;20454;-78
2023/12/31 07:37:12;;;;;;;0.47;0.47;;;7.10;99.90;;;;;;5110875;27;20043;-77
2023/12/31 07:39:41;;;;;;;1.90;0.82;;;7.10;99.90;;;;;;5108180;27;20396;-77
2023/12/31 07:42:07;;;;;;;0.60;0.60;;;7.10;99.90;;;;;;5124545;27;20035;-80
2023/12/31 07:44:32;;;;;;;0.45;0.45;;;7.10;99.90;;;;;;5128932;27;20092;-81
2023/12/31 07:46:58;;;;;;;0.32;0.32;;;7.10;99.90;;;;;;5119415;27;20051;-78
2023/12/31 07:49:24;;;;;;;;;;;7.10;99.90;;;;;;5135184;27;20054;-81
2023/12/31 07:51:50;;;;;;;0.50;0.50;;;7.10;99.90;;;;;;5109243;27;19919;-80
2023/12/31 07:54:16;;;;;;;0.45;0.45;;;7.10;99.90;;;;;;5122939;27;20050;-79
2023/12/31 07:56:42;;;;;;;0.45;0.45;;;7.20;99.90;;;;;;5131398;27;20070;-80
2023/12/31 07:59:08;;;;;;;0.40;0.40;;;7.30;99.90;;;;;;5126601;27;20078;-80
2023/12/31 08:01:34;;;;;;;;;;;7.30;99.90;;;;;;5138206;27;20035;-79
2023/12/31 08:04:00;;;;;;;0.40;0.40;;;7.40;99.90;;;;;;5129949;27;20181;-81
2023/12/31 08:06:26;;;;;;;0.38;0.38;;;7.40;99.90;;;;;;5127674;27;20111;-79
2023/12/31 08:08:52;;;;;;;0.50;0.50;;;7.40;99.90;;;;;;5125074;27;20119;-80
2023/12/31 08:11:21;;;;;;;0.75;0.60;;;7.40;99.90;;;;;;5129954;27;20096;-78
2023/12/31 08:13:48;;;;;;;0.50;0.50;;;7.50;99.90;;;;;;5127607;27;20117;-80
2023/12/31 08:16:14;;;;;;;0.80;0.80;;;7.50;99.90;;;;;;5129052;27;20078;-79
2023/12/31 08:18:39;;;;;;;0.50;0.50;;;7.50;99.90;;;;;;5132294;27;20074;-79
2023/12/31 08:21:05;;;;;;;0.43;0.43;;;7.60;99.90;;;;;;5120271;27;20541;-78
2023/12/31 08:23:31;;;;;;;0.40;0.40;;;7.60;99.90;;;;;;5115870;27;20043;-79
2023/12/31 08:25:57;;;;;;;0.40;0.40;;;7.60;99.90;;;;;;5131894;27;20404;-81
2023/12/31 08:28:23;;;;;;;0.93;0.93;;;7.60;99.90;;;;;;5140941;27;20051;-81
2023/12/31 08:30:48;;;;;;;0.40;0.40;;;7.60;99.90;;;;;;5136119;27;20088;-78
2023/12/31 08:33:14;;;;;;;1.10;1.10;;;7.60;99.90;;;;;;5128356;27;20039;-78
2023/12/31 08:35:41;;;;;;;0.45;0.45;;;7.60;99.90;;;;;;5110969;27;20047;-77
2023/12/31 08:38:07;;;;;;;0.60;0.60;;;7.60;99.90;;;;;;5132916;27;20489;-78
2023/12/31 08:40:33;;;;;;;0.40;0.40;;;7.60;99.90;;;;;;5113629;27;20092;-81
2023/12/31 08:42:59;;;;;;;0.38;0.38;;;7.60;99.90;;;;;;5128004;27;20045;-78
2023/12/31 08:45:24;;;;;;;0.40;0.40;;;7.60;99.90;;;;;;5134121;27;20039;-78
2023/12/31 08:47:52;;;;;;;0.50;0.50;;;7.60;99.90;;;;;;5112057;27;20094;-78
2023/12/31 08:50:18;;;;;;;0.30;0.30;;;7.60;99.90;;;;;;5124240;27;20131;-79
2023/12/31 08:52:45;;;;;;;0.40;0.40;;;7.60;99.90;;;;;;5135257;27;20118;-79
2023/12/31 08:55:12;;;;;;;0.30;0.30;;;7.70;99.90;;;;;;5132142;27;20054;-78
2023/12/31 08:57:48;;;;;;;0.30;0.30;;;7.60;99.90;;;;;;5128119;27;20027;-81
2023/12/31 09:00:17;;;;;;;;;;;7.60;99.90;;;;;;5099851;27;20102;-79
2023/12/31 09:02:43;;;;;;;0.32;0.32;;;7.60;99.90;;;;;;5135892;27;19962;-77
2023/12/31 09:05:09;;;;;;;0.40;0.40;;;7.60;99.90;;;;;;5112968;27;20463;-78
2023/12/31 09:07:35;;;;;;;0.40;0.40;;;7.70;99.90;;;;;;5134656;27;20035;-78
2023/12/31 09:10:05;;;;;;;0.47;0.47;;;7.70;99.90;;;;;;5115435;27;20521;-78
2023/12/31 09:12:31;;;;;;;0.50;0.50;;;7.70;99.90;;;;;;5136677;27;20493;-79
2023/12/31 09:14:58;;;;;;;0.40;0.40;;;7.80;99.90;;;;;;5135597;27;20047;-80
2023/12/31 09:17:23;;;;;;;0.40;0.40;;;7.80;99.90;;;;;;5114709;27;20373;-77
2023/12/31 09:19:49;;;;;;;0.43;0.43;;;7.80;99.90;;;;;;5116403;27;20060;-80
2023/12/31 09:22:15;;;;;;;0.40;0.40;;;7.80;99.90;;;;;;5109846;27;20069;-79
2023/12/31 09:24:41;;;;;;;0.60;0.60;;;7.80;99.90;;;;;;5122329;27;20042;-79
2023/12/31 09:27:07;;;;;;;0.50;0.50;;;7.90;99.90;;;;;;5130170;27;20038;-79
2023/12/31 09:29:36;;;;;;;0.40;0.40;;;7.90;99.90;;;;;;5091806;28;20055;-80
2023/12/31 09:32:03;;;;;;;0.40;0.40;;;8.00;99.90;;;;;;5124985;28;20054;-83
2023/12/31 09:34:29;;;;;;;0.45;0.45;;;8.00;99.90;;;;;;5106257;28;20047;-80
2023/12/31 09:36:54;;;;;;;0.40;0.40;;;8.00;99.90;;;;;;5127670;27;20395;-79
2023/12/31 09:39:20;;;;;;;0.40;0.40;;;8.00;99.90;;;;;;5128504;27;20043;-77
2023/12/31 09:41:52;;;;;;;0.50;0.50;;;8.10;99.90;;;;;;5127733;27;20040;-79
2023/12/31 09:44:19;;;;;;;8.77;2.05;;;8.10;99.90;;;;;;5128471;27;20601;-79
2023/12/31 09:47:04;;;;;;;0.40;0.40;;;8.10;99.90;;;;;;5126054;28;20042;-78
2023/12/31 09:49:31;;;;;;;0.30;0.30;;;8.10;99.90;;;;;;5126656;27;20043;-78
2023/12/31 09:52:00;;;;;;;0.40;0.40;;;8.10;99.90;;;;;;5094726;28;20396;-79
2023/12/31 09:54:26;;;;;;;0.57;0.57;;;8.10;99.90;;;;;;5093393;27;20039;-79
2023/12/31 09:56:52;;;;;;;1.20;1.10;;;8.20;99.90;;;;;;5130189;27;20035;-77
2023/12/31 09:59:20;;;;;;;0.50;0.50;;;8.20;99.90;;;;;;5109600;28;20034;-79
2023/12/31 10:01:46;;;;;;;0.40;0.40;;;8.20;99.90;;;;;;5132265;27;20073;-77
2023/12/31 10:04:13;;;;;;;0.43;0.43;;;8.30;99.90;;;;;;5129663;27;20453;-77
2023/12/31 10:06:39;;;;;;;0.40;0.40;;;8.30;99.90;;;;;;5132182;27;20071;-79
2023/12/31 10:09:08;;;;;;;0.50;0.50;;;8.30;99.90;;;;;;5133655;27;20736;-79
2023/12/31 10:11:36;;;;;;;0.30;0.30;;;8.40;99.90;;;;;;5129153;27;20479;-77
2023/12/31 10:14:02;;;;;;;0.40;0.40;;;8.40;99.90;;;;;;5111960;27;20396;-79
2023/12/31 10:16:36;;;;;;;0.32;0.32;;;8.40;99.90;;;;;;5132236;27;20038;-81
2023/12/31 10:19:03;;;;;;;0.50;0.50;;;8.40;99.90;;;;;;5131819;27;20111;-83
2023/12/31 10:21:29;;;;;;;0.40;0.40;;;8.50;99.90;;;;;;5131408;27;20039;-82
2023/12/31 10:23:55;;;;;;;0.40;0.40;;;8.50;99.90;;;;;;5110613;27;20047;-82
2023/12/31 10:26:20;;;;;;;0.40;0.40;;;8.60;99.90;;;;;;5130837;27;20053;-82
2023/12/31 10:28:46;;;;;;;0.82;0.82;;;8.60;99.90;;;;;;5124866;27;20051;-82
2023/12/31 10:31:12;;;;;;;0.30;0.30;;;8.80;99.90;;;;;;5103398;27;20047;-82
2023/12/31 10:33:39;;;;;;;0.40;0.40;;;8.70;99.90;;;;;;5095936;27;20038;-82
2023/12/31 10:36:06;;;;;;;0.50;0.50;;;8.80;99.90;;;;;;5126497;27;20035;-83
2023/12/31 10:38:48;;;;;;;0.40;0.40;;;8.80;99.90;;;;;;5130392;27;20071;-83
2023/12/31 10:41:24;;;;;;;0.40;0.40;;;8.90;99.90;;;;;;5129248;27;20058;-83
2023/12/31 10:43:51;;;;;;;0.40;0.40;;;8.90;99.90;;;;;;5134126;27;20042;-82
2023/12/31 10:46:21;;;;;;;0.30;0.30;;;8.90;99.90;;;;;;5112397;27;20039;-82
2023/12/31 10:49:03;;;;;;;0.40;0.40;;;8.90;99.90;;;;;;5114181;27;20051;-82
2023/12/31 10:51:31;;;;;;;0.68;0.68;;;8.90;99.90;;;;;;5127686;27;20074;-82
2023/12/31 10:54:06;;;;;;;0.60;0.60;;;8.90;99.90;;;;;;5127351;27;20434;-81
2023/12/31 10:56:32;;;;;;;0.40;0.40;;;9.00;99.90;;;;;;5137092;27;20043;-82
2023/12/31 10:58:58;;;;;;;0.88;0.88;;;8.90;99.90;;;;;;5116408;27;20809;-82
2023/12/31 11:01:24;;;;;;;;;;;9.00;99.90;;;;;;5136597;27;20358;-82
2023/12/31 11:03:52;;;;;;;0.40;0.40;;;9.00;99.90;;;;;;5137496;27;19933;-82
2023/12/31 11:06:19;;;;;;;0.30;0.30;;;9.00;99.90;;;;;;5128303;27;20117;-82
2023/12/31 11:08:46;;;;;;;0.50;0.50;;;9.10;99.90;;;;;;5133467;27;20118;-82
2023/12/31 11:11:14;;;;;;;0.50;0.50;;;9.20;99.90;;;;;;5113191;27;20051;-81
2023/12/31 11:13:42;;;;;;;0.32;0.32;;;9.20;99.90;;;;;;5124154;27;20046;-82
2023/12/31 11:16:24;;;;;;;0.70;0.70;;;9.30;99.90;;;;;;5126866;27;20039;-82
2023/12/31 11:19:05;;;;;;;0.68;0.68;;;9.40;99.90;;;;;;5125822;27;20119;-83
2023/12/31 11:21:49;;;;;;;0.45;0.45;;;9.40;99.90;;;;;;5107981;27;20039;-82
2023/12/31 11:24:18;;;;;;;0.30;0.30;;;9.40;99.90;;;;;;5107561;27;20074;-82
2023/12/31 11:26:44;;;;;;;0.75;0.63;;;9.40;99.90;;;;;;5122582;27;20059;-83
2023/12/31 11:29:13;;;;;;;;;;;9.30;99.90;;;;;;5125000;27;20218;-82
2023/12/31 11:31:42;;;;;;;0.95;0.95;;;9.20;99.90;;;;;;5108024;27;19962;-82
2023/12/31 11:34:09;;;;;;;0.38;0.38;;;9.20;99.90;;;;;;5126599;27;20370;-82
2023/12/31 11:36:36;;;;;;;1.40;1.33;;;9.20;99.90;;;;;;5129010;27;20169;-82
2023/12/31 11:39:14;;;;;;;1.75;0.60;;;9.10;99.90;;;;;;5108801;27;20472;-82
2023/12/31 11:41:47;;;;;;;0.40;0.40;;;9.10;99.90;;;;;;5111118;27;20058;-82
2023/12/31 11:44:36;;;;;;;0.30;0.30;;;9.00;99.90;;;;;;5120318;27;20042;-83
2023/12/31 11:47:02;;;;;;;0.30;0.30;;;8.90;99.90;;;;;;5144341;27;20045;-83
2023/12/31 11:49:27;;;;;;;0.30;0.30;;;8.80;99.90;;;;;;5154992;27;20030;-83
2023/12/31 11:51:58;;;;;;;0.38;0.38;;;8.80;99.90;;;;;;5151173;27;20043;-83
2023/12/31 11:54:44;;;;;;;0.50;0.50;;;8.70;99.90;;;;;;5120225;27;20104;-83
2023/12/31 11:57:10;;;;;;;0.47;0.47;;;8.70;99.90;;;;;;5117216;27;20529;-83
2023/12/31 11:59:37;;;;;;;0.30;0.30;;;8.50;99.90;;;;;;5132299;27;20468;-82
2023/12/31 12:02:05;;;;;;;1.73;1.63;;;8.40;99.90;;;;;;5111145;27;20054;-82
2023/12/31 12:04:30;;;;;;;0.25;0.25;;;8.40;99.90;;;;;;5121602;27;20047;-82
2023/12/31 12:06:56;;;;;;;0.40;0.40;;;8.30;99.90;;;;;;5133422;27;20053;-83
2023/12/31 12:09:26;;;;;;;;;;;8.20;99.90;;;;;;5131398;27;20042;-82
2023/12/31 12:11:57;;;;;;;0.30;0.30;;;8.20;99.90;;;;;;5120853;27;19915;-82
2023/12/31 12:14:22;;;;;;;0.50;0.50;;;8.10;99.90;;;;;;5132944;27;20495;-82
2023/12/31 12:16:48;;;;;;;0.52;0.52;;;8.10;99.90;;;;;;5085134;27;20034;-82
2023/12/31 12:19:14;;;;;;;0.47;0.47;;;8.10;99.90;;;;;;5126268;27;20035;-82
2023/12/31 12:21:41;;;;;;;0.30;0.30;;;8.00;99.90;;;;;;5093626;27;20047;-82
2023/12/31 12:24:08;;;;;;;0.65;0.65;;;7.90;99.90;;;;;;5125318;27;20046;-82
2023/12/31 12:26:36;;;;;;;0.50;0.50;;;7.90;99.90;;;;;;5130830;27;20047;-84
2023/12/31 12:29:02;;;;;;;0.40;0.40;;;7.90;99.90;;;;;;5122978;27;20164;-81
2023/12/31 12:31:37;;;;;;;0.50;0.50;;;7.90;99.90;;;;;;5149739;27;20114;-82
2023/12/31 12:34:04;;;;;;;0.40;0.40;;;8.90;99.90;;;;;;5142798;27;20054;-82
2023/12/31 12:36:32;;;;;;;0.30;0.30;;;8.00;99.90;;;;;;5127610;27;20031;-80
2023/12/31 12:39:02;;;;;;;0.40;0.40;;;8.10;99.90;;;;;;5143150;27;20050;-81
2023/12/31 12:41:32;;;;;;;0.40;0.40;;;8.30;99.90;;;;;;5143959;27;20042;-82
2023/12/31 12:44:05;;;;;;;0.40;0.40;;;8.40;99.90;;;;;;5144696;27;20439;-82
2023/12/31 12:46:32;;;;;;;0.40;0.40;;;8.50;99.90;;;;;;5121214;27;20055;-81
2023/12/31 12:48:58;;;;;;;0.40;0.40;;;8.60;99.90;;;;;;5133845;27;20070;-82
2023/12/31 12:51:25;;;;;;;0.50;0.50;;;8.70;99.90;;;;;;5125969;27;20483;-81
2023/12/31 12:53:53;;;;;;;0.45;0.45;;;8.80;99.90;;;;;;5142085;27;20054;-81
2023/12/31 12:56:19;;;;;;;0.40;0.40;;;8.80;99.90;;;;;;5140093;27;20484;-82
2023/12/31 12:58:45;;;;;;;;;;;8.80;99.90;;;;;;5138461;27;20049;-82